sensor_id;sensor_type;location;lat;lon;timestamp;pressure;altitude;pressure_sealevel;temperature;humidity
30856;BME280;17570;0.000;0.000;2023-04-23T00:00:06;96991.88;;;16.33;40.05
30856;BME280;17570;0.000;0.000;2023-04-23T00:02:38;96990.54;;;16.29;39.75
30856;BME280;17570;0.000;0.000;2023-04-23T00:05:07;96988.56;;;16.23;39.61
30856;BME280;17570;0.000;0.000;2023-04-23T00:07:36;96991.99;;;16.23;39.70
30856;BME280;17570;0.000;0.000;2023-04-23T00:10:03;96982.33;;;16.24;39.68
30856;BME280;17570;0.000;0.000;2023-04-23T00:12:33;96990.49;;;16.21;39.52
30856;BME280;17570;0.000;0.000;2023-04-23T00:15:01;96986.08;;;16.21;39.68
30856;BME280;17570;0.000;0.000;2023-04-23T00:17:29;96987.06;;;16.20;39.52
30856;BME280;17570;0.000;0.000;2023-04-23T00:19:56;96986.55;;;16.17;39.72
30856;BME280;17570;0.000;0.000;2023-04-23T00:22:24;96985.89;;;16.15;39.95
30856;BME280;17570;0.000;0.000;2023-04-23T00:24:51;96986.50;;;16.08;39.59
30856;BME280;17570;0.000;0.000;2023-04-23T00:27:19;96987.48;;;16.07;39.52
30856;BME280;17570;0.000;0.000;2023-04-23T00:29:48;96992.20;;;16.04;39.56
30856;BME280;17570;0.000;0.000;2023-04-23T00:32:16;96994.33;;;16.00;39.82
30856;BME280;17570;0.000;0.000;2023-04-23T00:34:44;96995.45;;;15.98;39.70
30856;BME280;17570;0.000;0.000;2023-04-23T00:37:13;96993.97;;;15.95;40.01
30856;BME280;17570;0.000;0.000;2023-04-23T00:39:41;96991.48;;;15.94;39.75
30856;BME280;17570;0.000;0.000;2023-04-23T00:42:09;96988.05;;;15.93;39.79
30856;BME280;17570;0.000;0.000;2023-04-23T00:44:41;96988.22;;;15.92;39.91
30856;BME280;17570;0.000;0.000;2023-04-23T00:47:09;96992.28;;;15.86;39.80
30856;BME280;17570;0.000;0.000;2023-04-23T00:49:37;96992.41;;;15.85;39.75
30856;BME280;17570;0.000;0.000;2023-04-23T00:52:05;96989.14;;;15.83;39.88
30856;BME280;17570;0.000;0.000;2023-04-23T00:54:33;96988.33;;;15.82;39.89
30856;BME280;17570;0.000;0.000;2023-04-23T00:57:00;96988.00;;;15.85;40.05
30856;BME280;17570;0.000;0.000;2023-04-23T00:59:28;96989.14;;;15.83;39.70
30856;BME280;17570;0.000;0.000;2023-04-23T01:01:57;96994.67;;;15.79;40.15
30856;BME280;17570;0.000;0.000;2023-04-23T01:04:26;96987.28;;;15.75;40.10
30856;BME280;17570;0.000;0.000;2023-04-23T01:06:55;96994.16;;;15.76;39.76
30856;BME280;17570;0.000;0.000;2023-04-23T01:09:23;96988.56;;;15.71;39.81
30856;BME280;17570;0.000;0.000;2023-04-23T01:11:53;96994.94;;;15.68;39.75
30856;BME280;17570;0.000;0.000;2023-04-23T01:14:20;96990.81;;;15.66;39.67
30856;BME280;17570;0.000;0.000;2023-04-23T01:16:48;96987.55;;;15.64;39.73
30856;BME280;17570;0.000;0.000;2023-04-23T01:19:16;96980.65;;;15.63;40.10
30856;BME280;17570;0.000;0.000;2023-04-23T01:21:46;96987.97;;;15.59;39.87
30856;BME280;17570;0.000;0.000;2023-04-23T01:24:16;96986.17;;;15.60;39.75
30856;BME280;17570;0.000;0.000;2023-04-23T01:26:44;96984.83;;;15.55;39.89
30856;BME280;17570;0.000;0.000;2023-04-23T01:29:12;96987.74;;;15.52;39.82
30856;BME280;17570;0.000;0.000;2023-04-23T01:31:40;96983.20;;;15.54;39.88
30856;BME280;17570;0.000;0.000;2023-04-23T01:34:09;96986.92;;;15.52;40.05
30856;BME280;17570;0.000;0.000;2023-04-23T01:36:36;96989.18;;;15.47;39.75
30856;BME280;17570;0.000;0.000;2023-04-23T01:39:04;96990.81;;;15.48;39.87
30856;BME280;17570;0.000;0.000;2023-04-23T01:41:32;96984.77;;;15.47;39.80
30856;BME280;17570;0.000;0.000;2023-04-23T01:44:00;96981.49;;;15.45;39.77
30856;BME280;17570;0.000;0.000;2023-04-23T01:46:27;96985.38;;;15.41;39.90
30856;BME280;17570;0.000;0.000;2023-04-23T01:48:55;96985.67;;;15.38;40.13
30856;BME280;17570;0.000;0.000;2023-04-23T01:51:23;96990.09;;;15.38;40.01
30856;BME280;17570;0.000;0.000;2023-04-23T01:53:51;96985.67;;;15.38;40.05
30856;BME280;17570;0.000;0.000;2023-04-23T01:56:18;96987.92;;;15.33;39.89
30856;BME280;17570;0.000;0.000;2023-04-23T01:58:48;96991.52;;;15.32;40.29
30856;BME280;17570;0.000;0.000;2023-04-23T02:01:15;96994.58;;;15.27;39.95
30856;BME280;17570;0.000;0.000;2023-04-23T02:03:43;96988.01;;;15.23;40.12
30856;BME280;17570;0.000;0.000;2023-04-23T02:06:11;96989.80;;;15.23;40.29
30856;BME280;17570;0.000;0.000;2023-04-23T02:08:39;96988.83;;;15.24;40.07
30856;BME280;17570;0.000;0.000;2023-04-23T02:11:07;96995.33;;;15.20;40.00
30856;BME280;17570;0.000;0.000;2023-04-23T02:13:35;96991.89;;;15.19;39.96
30856;BME280;17570;0.000;0.000;2023-04-23T02:16:03;96997.94;;;15.20;40.06
30856;BME280;17570;0.000;0.000;2023-04-23T02:18:30;96996.46;;;15.17;40.09
30856;BME280;17570;0.000;0.000;2023-04-23T02:20:59;96995.77;;;15.15;39.85
30856;BME280;17570;0.000;0.000;2023-04-23T02:23:27;96995.27;;;15.12;40.31
30856;BME280;17570;0.000;0.000;2023-04-23T02:25:54;96993.23;;;15.05;39.85
30856;BME280;17570;0.000;0.000;2023-04-23T02:28:22;96985.71;;;15.02;39.97
30856;BME280;17570;0.000;0.000;2023-04-23T02:30:50;96993.84;;;14.99;40.15
30856;BME280;17570;0.000;0.000;2023-04-23T02:33:17;96996.30;;;15.01;39.95
30856;BME280;17570;0.000;0.000;2023-04-23T02:35:45;96992.86;;;15.00;39.83
30856;BME280;17570;0.000;0.000;2023-04-23T02:38:13;96999.52;;;14.95;39.84
30856;BME280;17570;0.000;0.000;2023-04-23T02:40:40;96992.94;;;14.91;39.81
30856;BME280;17570;0.000;0.000;2023-04-23T02:43:09;97002.03;;;14.87;39.83
30856;BME280;17570;0.000;0.000;2023-04-23T02:45:36;97001.38;;;14.85;39.98
30856;BME280;17570;0.000;0.000;2023-04-23T02:48:04;96993.00;;;14.81;39.78
30856;BME280;17570;0.000;0.000;2023-04-23T02:50:31;96998.23;;;14.81;39.93
30856;BME280;17570;0.000;0.000;2023-04-23T02:52:59;96997.56;;;14.79;39.76
30856;BME280;17570;0.000;0.000;2023-04-23T02:55:26;96991.80;;;14.75;39.69
30856;BME280;17570;0.000;0.000;2023-04-23T02:57:55;96991.96;;;14.74;39.78
30856;BME280;17570;0.000;0.000;2023-04-23T03:00:23;96993.88;;;14.72;39.95
30856;BME280;17570;0.000;0.000;2023-04-23T03:02:51;96992.09;;;14.72;39.97
30856;BME280;17570;0.000;0.000;2023-04-23T03:05:18;96998.57;;;14.68;39.65
30856;BME280;17570;0.000;0.000;2023-04-23T03:07:46;96999.55;;;14.67;39.94
30856;BME280;17570;0.000;0.000;2023-04-23T03:10:13;97003.95;;;14.67;39.95
30856;BME280;17570;0.000;0.000;2023-04-23T03:12:42;97006.72;;;14.65;39.88
30856;BME280;17570;0.000;0.000;2023-04-23T03:15:09;97000.14;;;14.61;39.89
30856;BME280;17570;0.000;0.000;2023-04-23T03:17:37;97004.67;;;14.59;39.97
30856;BME280;17570;0.000;0.000;2023-04-23T03:20:05;97007.16;;;14.61;39.90
30856;BME280;17570;0.000;0.000;2023-04-23T03:22:34;97002.91;;;14.60;39.91
30856;BME280;17570;0.000;0.000;2023-04-23T03:25:02;96997.97;;;14.57;39.82
30856;BME280;17570;0.000;0.000;2023-04-23T03:27:29;97001.67;;;14.54;39.83
30856;BME280;17570;0.000;0.000;2023-04-23T03:29:57;97002.81;;;14.51;39.78
30856;BME280;17570;0.000;0.000;2023-04-23T03:32:24;97004.88;;;14.48;39.87
30856;BME280;17570;0.000;0.000;2023-04-23T03:34:52;96993.73;;;14.46;39.75
30856;BME280;17570;0.000;0.000;2023-04-23T03:37:21;97000.06;;;14.43;39.79
30856;BME280;17570;0.000;0.000;2023-04-23T03:39:49;97003.77;;;14.41;39.95
30856;BME280;17570;0.000;0.000;2023-04-23T03:42:17;97011.60;;;14.41;40.07
30856;BME280;17570;0.000;0.000;2023-04-23T03:44:44;97006.38;;;14.41;40.09
30856;BME280;17570;0.000;0.000;2023-04-23T03:47:12;97002.83;;;14.42;40.10
30856;BME280;17570;0.000;0.000;2023-04-23T03:49:40;97007.23;;;14.41;40.14
30856;BME280;17570;0.000;0.000;2023-04-23T03:52:07;97007.79;;;14.35;40.50
30856;BME280;17570;0.000;0.000;2023-04-23T03:54:36;97005.48;;;14.32;40.37
30856;BME280;17570;0.000;0.000;2023-04-23T03:57:08;97008.38;;;14.29;40.44
30856;BME280;17570;0.000;0.000;2023-04-23T03:59:39;97009.62;;;14.25;40.52
30856;BME280;17570;0.000;0.000;2023-04-23T04:02:07;97011.41;;;14.24;40.70
30856;BME280;17570;0.000;0.000;2023-04-23T04:04:37;97012.23;;;14.25;40.72
30856;BME280;17570;0.000;0.000;2023-04-23T04:07:04;97015.23;;;14.30;40.73
30856;BME280;17570;0.000;0.000;2023-04-23T04:09:33;97018.97;;;14.27;40.67
30856;BME280;17570;0.000;0.000;2023-04-23T04:12:01;97028.28;;;14.30;40.66
30856;BME280;17570;0.000;0.000;2023-04-23T04:14:30;97027.20;;;14.33;40.84
30856;BME280;17570;0.000;0.000;2023-04-23T04:16:57;97023.77;;;14.32;40.80
30856;BME280;17570;0.000;0.000;2023-04-23T04:19:25;97018.55;;;14.32;40.78
30856;BME280;17570;0.000;0.000;2023-04-23T04:21:52;97021.43;;;14.29;40.93
30856;BME280;17570;0.000;0.000;2023-04-23T04:24:20;97029.11;;;14.30;41.04
30856;BME280;17570;0.000;0.000;2023-04-23T04:26:47;97028.98;;;14.32;41.19
30856;BME280;17570;0.000;0.000;2023-04-23T04:29:15;97027.04;;;14.34;41.36
30856;BME280;17570;0.000;0.000;2023-04-23T04:31:42;97031.02;;;14.38;41.46
30856;BME280;17570;0.000;0.000;2023-04-23T04:34:10;97034.98;;;14.42;41.49
30856;BME280;17570;0.000;0.000;2023-04-23T04:36:39;97031.94;;;14.47;41.75
30856;BME280;17570;0.000;0.000;2023-04-23T04:39:07;97036.06;;;14.49;41.89
30856;BME280;17570;0.000;0.000;2023-04-23T04:41:35;97030.28;;;14.56;41.99
30856;BME280;17570;0.000;0.000;2023-04-23T04:44:03;97034.92;;;14.62;42.14
30856;BME280;17570;0.000;0.000;2023-04-23T04:46:30;97043.30;;;14.65;42.31
30856;BME280;17570;0.000;0.000;2023-04-23T04:48:59;97029.64;;;14.71;42.59
30856;BME280;17570;0.000;0.000;2023-04-23T04:51:27;97041.45;;;14.75;42.79
30856;BME280;17570;0.000;0.000;2023-04-23T04:53:54;97032.04;;;14.83;42.71
30856;BME280;17570;0.000;0.000;2023-04-23T04:56:22;97036.83;;;14.87;43.06
30856;BME280;17570;0.000;0.000;2023-04-23T04:58:51;97032.67;;;14.94;42.99
30856;BME280;17570;0.000;0.000;2023-04-23T05:01:19;97034.02;;;14.98;43.26
30856;BME280;17570;0.000;0.000;2023-04-23T05:03:47;97036.73;;;15.07;43.41
30856;BME280;17570;0.000;0.000;2023-04-23T05:06:14;97034.33;;;15.13;43.21
30856;BME280;17570;0.000;0.000;2023-04-23T05:08:42;97034.41;;;15.21;43.26
30856;BME280;17570;0.000;0.000;2023-04-23T05:11:11;97034.09;;;15.24;43.27
30856;BME280;17570;0.000;0.000;2023-04-23T05:13:39;97034.34;;;15.31;43.30
30856;BME280;17570;0.000;0.000;2023-04-23T05:16:06;97030.01;;;15.40;43.41
30856;BME280;17570;0.000;0.000;2023-04-23T05:18:35;97035.45;;;15.46;43.44
30856;BME280;17570;0.000;0.000;2023-04-23T05:21:02;97035.52;;;15.54;43.04
30856;BME280;17570;0.000;0.000;2023-04-23T05:23:30;97036.41;;;15.63;42.85
30856;BME280;17570;0.000;0.000;2023-04-23T05:25:57;97033.50;;;15.66;42.76
30856;BME280;17570;0.000;0.000;2023-04-23T05:28:24;97034.72;;;15.72;42.65
30856;BME280;17570;0.000;0.000;2023-04-23T05:30:52;97029.52;;;15.80;42.52
30856;BME280;17570;0.000;0.000;2023-04-23T05:33:19;97036.09;;;15.84;42.64
30856;BME280;17570;0.000;0.000;2023-04-23T05:35:47;97040.05;;;15.88;42.59
30856;BME280;17570;0.000;0.000;2023-04-23T05:38:14;97036.67;;;15.96;42.64
30856;BME280;17570;0.000;0.000;2023-04-23T05:40:42;97035.89;;;16.03;42.56
30856;BME280;17570;0.000;0.000;2023-04-23T05:43:11;97036.24;;;16.08;42.63
30856;BME280;17570;0.000;0.000;2023-04-23T05:45:38;97032.70;;;16.18;42.50
30856;BME280;17570;0.000;0.000;2023-04-23T05:48:06;97037.17;;;16.25;42.55
30856;BME280;17570;0.000;0.000;2023-04-23T05:50:33;97034.78;;;16.40;42.79
30856;BME280;17570;0.000;0.000;2023-04-23T05:53:01;97038.39;;;16.73;43.69
30856;BME280;17570;0.000;0.000;2023-04-23T05:55:28;97028.95;;;16.89;43.51
30856;BME280;17570;0.000;0.000;2023-04-23T05:57:56;97033.38;;;16.88;43.52
30856;BME280;17570;0.000;0.000;2023-04-23T06:00:23;97040.77;;;16.93;43.59
30856;BME280;17570;0.000;0.000;2023-04-23T06:02:51;97038.96;;;17.01;43.13
30856;BME280;17570;0.000;0.000;2023-04-23T06:05:18;97031.29;;;17.08;42.72
30856;BME280;17570;0.000;0.000;2023-04-23T06:07:48;97034.89;;;17.15;42.64
30856;BME280;17570;0.000;0.000;2023-04-23T06:10:15;97034.58;;;17.18;42.22
30856;BME280;17570;0.000;0.000;2023-04-23T06:12:43;97034.41;;;17.20;41.96
30856;BME280;17570;0.000;0.000;2023-04-23T06:15:10;97035.25;;;17.28;41.76
30856;BME280;17570;0.000;0.000;2023-04-23T06:17:38;97016.22;;;17.34;41.35
30856;BME280;17570;0.000;0.000;2023-04-23T06:20:07;97022.30;;;17.43;41.36
30856;BME280;17570;0.000;0.000;2023-04-23T06:22:36;97015.25;;;17.52;41.22
30856;BME280;17570;0.000;0.000;2023-04-23T06:25:05;97021.82;;;17.56;41.20
30856;BME280;17570;0.000;0.000;2023-04-23T06:27:34;97022.00;;;17.63;41.60
30856;BME280;17570;0.000;0.000;2023-04-23T06:30:04;97014.13;;;17.79;41.00
30856;BME280;17570;0.000;0.000;2023-04-23T06:32:31;97012.31;;;17.88;40.39
30856;BME280;17570;0.000;0.000;2023-04-23T06:35:01;97020.34;;;17.94;40.04
30856;BME280;17570;0.000;0.000;2023-04-23T06:37:29;97020.83;;;17.98;40.41
30856;BME280;17570;0.000;0.000;2023-04-23T06:39:57;97016.39;;;18.06;39.36
30856;BME280;17570;0.000;0.000;2023-04-23T06:42:25;97012.89;;;18.22;39.81
30856;BME280;17570;0.000;0.000;2023-04-23T06:44:57;97011.66;;;18.49;40.23
30856;BME280;17570;0.000;0.000;2023-04-23T06:47:26;97009.30;;;18.63;39.02
30856;BME280;17570;0.000;0.000;2023-04-23T06:49:53;97011.93;;;18.71;38.57
30856;BME280;17570;0.000;0.000;2023-04-23T06:52:21;97008.91;;;18.82;39.39
30856;BME280;17570;0.000;0.000;2023-04-23T06:54:48;96999.05;;;18.84;38.46
30856;BME280;17570;0.000;0.000;2023-04-23T06:57:18;97004.76;;;18.88;38.60
30856;BME280;17570;0.000;0.000;2023-04-23T06:59:47;97003.79;;;18.89;37.73
30856;BME280;17570;0.000;0.000;2023-04-23T07:02:15;97001.98;;;18.89;37.48
30856;BME280;17570;0.000;0.000;2023-04-23T07:04:43;96994.20;;;18.96;38.19
30856;BME280;17570;0.000;0.000;2023-04-23T07:07:10;96996.78;;;19.04;37.67
30856;BME280;17570;0.000;0.000;2023-04-23T07:09:37;96998.52;;;19.11;36.77
30856;BME280;17570;0.000;0.000;2023-04-23T07:12:05;96997.66;;;19.19;37.25
30856;BME280;17570;0.000;0.000;2023-04-23T07:14:32;96994.80;;;19.29;36.75
30856;BME280;17570;0.000;0.000;2023-04-23T07:17:00;96990.11;;;19.39;36.32
30856;BME280;17570;0.000;0.000;2023-04-23T07:19:27;96988.23;;;19.48;36.13
30856;BME280;17570;0.000;0.000;2023-04-23T07:21:55;96984.72;;;19.55;35.59
30856;BME280;17570;0.000;0.000;2023-04-23T07:24:22;96987.95;;;19.66;35.63
30856;BME280;17570;0.000;0.000;2023-04-23T07:26:51;96985.06;;;19.75;34.78
30856;BME280;17570;0.000;0.000;2023-04-23T07:29:19;96979.53;;;19.85;33.94
30856;BME280;17570;0.000;0.000;2023-04-23T07:31:47;96977.45;;;19.95;33.67
30856;BME280;17570;0.000;0.000;2023-04-23T07:34:14;96975.74;;;20.02;33.12
30856;BME280;17570;0.000;0.000;2023-04-23T07:36:42;96982.56;;;20.11;32.91
30856;BME280;17570;0.000;0.000;2023-04-23T07:39:09;96976.39;;;20.19;32.16
30856;BME280;17570;0.000;0.000;2023-04-23T07:41:37;96981.39;;;20.29;31.72
30856;BME280;17570;0.000;0.000;2023-04-23T07:44:05;96983.09;;;20.36;31.26
30856;BME280;17570;0.000;0.000;2023-04-23T07:46:32;96975.09;;;20.45;31.11
30856;BME280;17570;0.000;0.000;2023-04-23T07:49:00;96977.83;;;20.51;30.99
30856;BME280;17570;0.000;0.000;2023-04-23T07:51:27;96974.48;;;20.57;31.72
30856;BME280;17570;0.000;0.000;2023-04-23T07:53:55;96961.16;;;20.66;31.24
30856;BME280;17570;0.000;0.000;2023-04-23T07:56:23;96973.89;;;20.77;31.12
30856;BME280;17570;0.000;0.000;2023-04-23T07:58:51;96965.87;;;20.85;31.69
30856;BME280;17570;0.000;0.000;2023-04-23T08:01:19;96964.10;;;20.92;30.74
30856;BME280;17570;0.000;0.000;2023-04-23T08:03:47;96968.82;;;20.97;32.17
30856;BME280;17570;0.000;0.000;2023-04-23T08:06:14;96967.08;;;21.04;32.12
30856;BME280;17570;0.000;0.000;2023-04-23T08:08:43;96961.66;;;21.12;32.53
30856;BME280;17570;0.000;0.000;2023-04-23T08:11:11;96960.72;;;21.20;32.56
30856;BME280;17570;0.000;0.000;2023-04-23T08:13:38;96954.31;;;21.29;32.35
30856;BME280;17570;0.000;0.000;2023-04-23T08:16:06;96966.41;;;21.38;31.04
30856;BME280;17570;0.000;0.000;2023-04-23T08:18:35;96961.00;;;21.46;30.44
30856;BME280;17570;0.000;0.000;2023-04-23T08:21:03;96949.46;;;21.54;30.48
30856;BME280;17570;0.000;0.000;2023-04-23T08:23:31;96962.34;;;21.63;32.25
30856;BME280;17570;0.000;0.000;2023-04-23T08:25:58;96955.09;;;21.72;31.08
30856;BME280;17570;0.000;0.000;2023-04-23T08:28:27;96949.66;;;21.80;30.98
30856;BME280;17570;0.000;0.000;2023-04-23T08:30:56;96948.51;;;21.89;31.35
30856;BME280;17570;0.000;0.000;2023-04-23T08:33:23;96953.65;;;21.98;31.67
30856;BME280;17570;0.000;0.000;2023-04-23T08:35:51;96953.88;;;22.03;30.66
30856;BME280;17570;0.000;0.000;2023-04-23T08:38:19;96952.89;;;22.38;30.23
30856;BME280;17570;0.000;0.000;2023-04-23T08:40:46;96943.66;;;22.76;32.85
30856;BME280;17570;0.000;0.000;2023-04-23T08:43:18;96947.16;;;22.89;30.18
30856;BME280;17570;0.000;0.000;2023-04-23T08:45:48;96945.75;;;22.94;29.45
30856;BME280;17570;0.000;0.000;2023-04-23T08:48:15;96945.36;;;22.97;28.43
30856;BME280;17570;0.000;0.000;2023-04-23T08:50:44;96942.92;;;23.02;28.32
30856;BME280;17570;0.000;0.000;2023-04-23T08:53:14;96951.89;;;23.07;28.44
30856;BME280;17570;0.000;0.000;2023-04-23T08:55:41;96944.58;;;23.09;27.55
30856;BME280;17570;0.000;0.000;2023-04-23T08:58:08;96941.72;;;23.11;27.20
30856;BME280;17570;0.000;0.000;2023-04-23T09:00:36;96939.70;;;23.13;26.29
30856;BME280;17570;0.000;0.000;2023-04-23T09:03:04;96937.87;;;23.13;26.32
30856;BME280;17570;0.000;0.000;2023-04-23T09:05:32;96933.56;;;23.12;26.88
30856;BME280;17570;0.000;0.000;2023-04-23T09:07:59;96934.59;;;23.11;26.21
30856;BME280;17570;0.000;0.000;2023-04-23T09:10:27;96930.31;;;23.10;26.07
30856;BME280;17570;0.000;0.000;2023-04-23T09:12:54;96925.83;;;23.11;26.23
30856;BME280;17570;0.000;0.000;2023-04-23T09:15:22;96923.81;;;23.13;25.98
30856;BME280;17570;0.000;0.000;2023-04-23T09:17:49;96931.97;;;23.18;25.54
30856;BME280;17570;0.000;0.000;2023-04-23T09:20:17;96932.56;;;23.27;26.57
30856;BME280;17570;0.000;0.000;2023-04-23T09:22:45;96930.34;;;23.37;26.49
30856;BME280;17570;0.000;0.000;2023-04-23T09:25:15;96927.47;;;23.45;25.81
30856;BME280;17570;0.000;0.000;2023-04-23T09:27:43;96929.11;;;23.53;26.66
30856;BME280;17570;0.000;0.000;2023-04-23T09:30:11;96933.19;;;23.62;27.11
30856;BME280;17570;0.000;0.000;2023-04-23T09:32:39;96937.07;;;23.73;28.97
30856;BME280;17570;0.000;0.000;2023-04-23T09:35:08;96930.77;;;23.74;27.96
30856;BME280;17570;0.000;0.000;2023-04-23T09:37:36;96940.77;;;23.65;27.06
30856;BME280;17570;0.000;0.000;2023-04-23T09:40:05;96939.09;;;23.57;26.43
30856;BME280;17570;0.000;0.000;2023-04-23T09:42:36;96940.72;;;23.45;25.01
30856;BME280;17570;0.000;0.000;2023-04-23T09:45:07;96938.89;;;23.39;25.39
30856;BME280;17570;0.000;0.000;2023-04-23T09:47:39;96941.55;;;23.39;26.45
30856;BME280;17570;0.000;0.000;2023-04-23T09:50:06;96952.53;;;23.36;25.80
30856;BME280;17570;0.000;0.000;2023-04-23T09:52:38;96941.13;;;23.29;26.73
30856;BME280;17570;0.000;0.000;2023-04-23T09:55:06;96946.63;;;23.21;26.05
30856;BME280;17570;0.000;0.000;2023-04-23T09:57:37;96951.08;;;23.07;26.86
30856;BME280;17570;0.000;0.000;2023-04-23T10:00:14;96956.59;;;23.05;26.58
30856;BME280;17570;0.000;0.000;2023-04-23T10:02:45;96957.40;;;22.99;26.89
30856;BME280;17570;0.000;0.000;2023-04-23T10:05:18;96950.41;;;22.85;27.00
30856;BME280;17570;0.000;0.000;2023-04-23T10:07:46;96958.10;;;22.80;27.45
30856;BME280;17570;0.000;0.000;2023-04-23T10:10:17;96956.69;;;22.77;27.15
30856;BME280;17570;0.000;0.000;2023-04-23T10:12:45;96957.71;;;22.76;27.83
30856;BME280;17570;0.000;0.000;2023-04-23T10:15:13;96959.13;;;22.72;28.22
30856;BME280;17570;0.000;0.000;2023-04-23T10:17:40;96956.65;;;22.71;28.06
30856;BME280;17570;0.000;0.000;2023-04-23T10:20:08;96952.37;;;22.63;29.49
30856;BME280;17570;0.000;0.000;2023-04-23T10:22:37;96952.53;;;22.55;28.68
30856;BME280;17570;0.000;0.000;2023-04-23T10:25:07;96950.26;;;22.45;29.55
30856;BME280;17570;0.000;0.000;2023-04-23T10:27:36;96952.89;;;22.38;29.36
30856;BME280;17570;0.000;0.000;2023-04-23T10:30:09;96945.92;;;22.31;30.19
30856;BME280;17570;0.000;0.000;2023-04-23T10:32:33;96950.35;;;22.24;29.78
30856;BME280;17570;0.000;0.000;2023-04-23T10:35:00;96948.70;;;22.16;30.00
30856;BME280;17570;0.000;0.000;2023-04-23T10:37:28;96938.13;;;22.16;30.52
30856;BME280;17570;0.000;0.000;2023-04-23T10:40:05;96937.70;;;22.12;31.29
30856;BME280;17570;0.000;0.000;2023-04-23T10:42:26;96935.66;;;22.14;30.80
30856;BME280;17570;0.000;0.000;2023-04-23T10:44:59;96937.06;;;22.10;30.75
30856;BME280;17570;0.000;0.000;2023-04-23T10:47:23;96928.14;;;22.11;30.90
30856;BME280;17570;0.000;0.000;2023-04-23T10:49:51;96923.45;;;22.13;31.89
30856;BME280;17570;0.000;0.000;2023-04-23T10:52:18;96923.08;;;22.17;32.06
30856;BME280;17570;0.000;0.000;2023-04-23T10:54:48;96931.82;;;22.17;31.94
30856;BME280;17570;0.000;0.000;2023-04-23T10:57:15;96922.27;;;22.16;29.85
30856;BME280;17570;0.000;0.000;2023-04-23T10:59:53;96919.41;;;22.18;30.31
30856;BME280;17570;0.000;0.000;2023-04-23T11:02:24;96916.19;;;22.22;30.66
30856;BME280;17570;0.000;0.000;2023-04-23T11:04:55;96916.77;;;22.18;30.30
30856;BME280;17570;0.000;0.000;2023-04-23T11:07:29;96918.02;;;22.22;30.20
30856;BME280;17570;0.000;0.000;2023-04-23T11:09:56;96916.19;;;22.22;31.22
30856;BME280;17570;0.000;0.000;2023-04-23T11:14:53;96922.33;;;22.29;29.36
30856;BME280;17570;0.000;0.000;2023-04-23T11:17:22;96917.44;;;22.33;29.12
30856;BME280;17570;0.000;0.000;2023-04-23T11:22:43;96905.90;;;22.47;27.96
30856;BME280;17570;0.000;0.000;2023-04-23T11:25:18;96910.75;;;22.37;27.32
30856;BME280;17570;0.000;0.000;2023-04-23T11:27:44;96908.55;;;22.47;27.12
30856;BME280;17570;0.000;0.000;2023-04-23T11:30:12;96910.59;;;22.52;26.02
30856;BME280;17570;0.000;0.000;2023-04-23T11:32:40;96903.12;;;22.62;26.20
30856;BME280;17570;0.000;0.000;2023-04-23T11:35:08;96899.06;;;22.73;25.82
30856;BME280;17570;0.000;0.000;2023-04-23T11:37:39;96898.67;;;22.82;27.82
30856;BME280;17570;0.000;0.000;2023-04-23T11:40:08;96900.52;;;22.88;26.80
30856;BME280;17570;0.000;0.000;2023-04-23T11:42:42;96893.23;;;22.97;27.24
30856;BME280;17570;0.000;0.000;2023-04-23T11:45:27;96888.98;;;23.09;27.58
30856;BME280;17570;0.000;0.000;2023-04-23T11:47:55;96895.70;;;23.19;26.86
30856;BME280;17570;0.000;0.000;2023-04-23T11:50:29;96888.98;;;23.23;27.65
30856;BME280;17570;0.000;0.000;2023-04-23T11:52:52;96885.71;;;23.34;28.02
30856;BME280;17570;0.000;0.000;2023-04-23T11:55:20;96888.77;;;23.51;27.91
30856;BME280;17570;0.000;0.000;2023-04-23T11:57:49;96892.23;;;23.71;27.89
30856;BME280;17570;0.000;0.000;2023-04-23T12:00:17;96883.41;;;23.97;27.91
30856;BME280;17570;0.000;0.000;2023-04-23T12:02:51;96875.34;;;24.24;28.79
30856;BME280;17570;0.000;0.000;2023-04-23T12:05:20;96875.02;;;24.58;29.55
30856;BME280;17570;0.000;0.000;2023-04-23T12:07:51;96867.33;;;24.82;29.36
30856;BME280;17570;0.000;0.000;2023-04-23T12:10:19;96862.87;;;25.07;29.34
30856;BME280;17570;0.000;0.000;2023-04-23T12:12:50;96853.18;;;25.19;28.36
30856;BME280;17570;0.000;0.000;2023-04-23T12:15:18;96858.05;;;25.48;28.56
30856;BME280;17570;0.000;0.000;2023-04-23T12:17:49;96851.98;;;25.84;28.62
30856;BME280;17570;0.000;0.000;2023-04-23T12:20:17;96852.69;;;26.28;28.33
30856;BME280;17570;0.000;0.000;2023-04-23T12:22:46;96838.53;;;26.76;27.91
30856;BME280;17570;0.000;0.000;2023-04-23T12:25:14;96840.86;;;27.26;27.07
30856;BME280;17570;0.000;0.000;2023-04-23T12:27:43;96834.38;;;27.80;25.97
30856;BME280;17570;0.000;0.000;2023-04-23T12:30:11;96828.02;;;28.21;25.91
30856;BME280;17570;0.000;0.000;2023-04-23T12:32:39;96819.02;;;28.68;25.24
30856;BME280;17570;0.000;0.000;2023-04-23T12:35:07;96814.14;;;29.10;24.89
30856;BME280;17570;0.000;0.000;2023-04-23T12:37:36;96808.23;;;29.47;24.85
30856;BME280;17570;0.000;0.000;2023-04-23T12:40:04;96809.82;;;29.82;25.00
30856;BME280;17570;0.000;0.000;2023-04-23T12:42:32;96806.28;;;30.20;24.76
30856;BME280;17570;0.000;0.000;2023-04-23T12:45:04;96805.33;;;30.58;23.58
30856;BME280;17570;0.000;0.000;2023-04-23T12:47:33;96806.23;;;30.96;23.38
30856;BME280;17570;0.000;0.000;2023-04-23T12:50:03;96798.48;;;31.32;22.91
30856;BME280;17570;0.000;0.000;2023-04-23T12:52:31;96799.21;;;31.64;22.78
30856;BME280;17570;0.000;0.000;2023-04-23T14:52:24;96731.70;;;26.42;22.68
30856;BME280;17570;0.000;0.000;2023-04-23T14:54:51;96729.48;;;27.39;22.09
30856;BME280;17570;0.000;0.000;2023-04-23T14:57:21;96725.25;;;28.53;20.45
30856;BME280;17570;0.000;0.000;2023-04-23T14:59:48;96730.14;;;29.06;19.92
30856;BME280;17570;0.000;0.000;2023-04-23T15:02:16;96733.02;;;29.21;18.71
30856;BME280;17570;0.000;0.000;2023-04-23T15:04:44;96736.43;;;29.17;18.53
30856;BME280;17570;0.000;0.000;2023-04-23T15:07:11;96725.27;;;29.03;18.95
30856;BME280;17570;0.000;0.000;2023-04-23T15:09:39;96727.70;;;28.88;19.29
30856;BME280;17570;0.000;0.000;2023-04-23T15:12:15;96728.65;;;28.82;19.12
30856;BME280;17570;0.000;0.000;2023-04-23T15:14:36;96728.20;;;28.68;19.22
30856;BME280;17570;0.000;0.000;2023-04-23T15:17:04;96723.89;;;28.50;19.21